createdAt,value
2022-12-04T00:00:17.136Z,1016.6
2022-12-04T00:01:17.140Z,1016.7
2022-12-04T00:02:17.144Z,1016.6
2022-12-04T00:03:17.324Z,1016.7
2022-12-04T00:04:17.252Z,1016.8
2022-12-04T00:05:17.319Z,1016.7
2022-12-04T00:06:17.173Z,1016.8
2022-12-04T00:07:17.195Z,1016.7
2022-12-04T00:08:17.395Z,1016.6
2022-12-04T00:09:17.198Z,1016.7
2022-12-04T00:10:17.217Z,1016.6
2022-12-04T00:11:17.211Z,1016.7
2022-12-04T00:12:17.220Z,1016.8
2022-12-04T00:13:17.229Z,1016.7
2022-12-04T00:14:17.237Z,1016.7
2022-12-04T00:15:27.353Z,1016.7
2022-12-04T00:16:17.399Z,1016.7
2022-12-04T00:17:17.292Z,1016.7
2022-12-04T00:18:17.264Z,1016.6
2022-12-04T00:19:17.274Z,1016.6
2022-12-04T00:20:17.276Z,1016.7
2022-12-04T00:21:17.292Z,1016.7
2022-12-04T00:22:17.315Z,1016.7
2022-12-04T00:23:17.301Z,1016.7
2022-12-04T00:24:17.315Z,1016.7
2022-12-04T00:25:17.311Z,1016.7
2022-12-04T00:26:17.319Z,1016.7
2022-12-04T00:27:17.321Z,1016.6
2022-12-04T00:28:17.332Z,1016.6
2022-12-04T00:29:17.342Z,1016.8
2022-12-04T00:30:17.356Z,1016.6
2022-12-04T00:31:17.444Z,1016.8
2022-12-04T00:32:17.379Z,1016.7
2022-12-04T00:33:17.362Z,1016.7
2022-12-04T00:34:17.376Z,1016.7
2022-12-04T00:35:17.384Z,1016.7
2022-12-04T00:36:17.386Z,1016.7
2022-12-04T00:37:17.390Z,1016.7
2022-12-04T00:38:17.395Z,1016.7
2022-12-04T00:39:17.403Z,1016.6
2022-12-04T00:40:17.414Z,1016.6
2022-12-04T00:41:17.418Z,1016.6
2022-12-04T00:42:17.427Z,1016.6
2022-12-04T00:43:17.431Z,1016.6
2022-12-04T00:44:17.438Z,1016.6
2022-12-04T00:45:17.441Z,1016.6
2022-12-04T00:46:17.788Z,1016.6
2022-12-04T00:47:17.458Z,1016.7
2022-12-04T00:48:17.460Z,1016.6
2022-12-04T00:49:17.471Z,1016.6
2022-12-04T00:50:17.476Z,1016.6
2022-12-04T00:51:17.490Z,1016.6
2022-12-04T00:52:17.490Z,1016.6
2022-12-04T00:53:17.503Z,1016.6
2022-12-04T00:54:17.502Z,1016.7
2022-12-04T00:55:17.508Z,1016.7
2022-12-04T00:56:19.032Z,1016.6
2022-12-04T00:57:17.534Z,1016.6
2022-12-04T00:58:17.543Z,1016.5
2022-12-04T00:59:17.543Z,1016.6
2022-12-04T01:00:17.555Z,1016.6
2022-12-04T01:01:17.774Z,1016.6
2022-12-04T01:02:17.574Z,1016.5
2022-12-04T01:03:17.760Z,1016.5
2022-12-04T01:04:17.582Z,1016.5
2022-12-04T01:05:17.584Z,1016.6
2022-12-04T01:06:17.587Z,1016.5
2022-12-04T01:07:17.598Z,1016.5
2022-12-04T01:08:17.710Z,1016.5
2022-12-04T01:09:17.611Z,1016.5
2022-12-04T01:10:17.621Z,1016.5
2022-12-04T01:11:17.645Z,1016.6
2022-12-04T01:12:21.280Z,1016.6
2022-12-04T01:13:17.638Z,1016.5
2022-12-04T01:14:17.646Z,1016.6
2022-12-04T01:15:17.660Z,1016.6
2022-12-04T01:16:17.787Z,1016.6
2022-12-04T01:17:17.672Z,1016.5
2022-12-04T01:18:17.684Z,1016.5
2022-12-04T01:19:17.690Z,1016.5
2022-12-04T01:20:17.689Z,1016.5
2022-12-04T01:21:17.701Z,1016.6
2022-12-04T01:22:17.704Z,1016.6
2022-12-04T01:23:17.722Z,1016.6
2022-12-04T01:24:17.725Z,1016.6
2022-12-04T01:42:18.238Z,1016.6
2022-12-04T01:43:17.856Z,1016.6
2022-12-04T01:44:17.859Z,1016.6
2022-12-04T01:45:17.865Z,1016.5
2022-12-04T01:46:17.987Z,1016.5
2022-12-04T01:47:17.882Z,1016.5
2022-12-04T01:48:17.882Z,1016.5
2022-12-04T01:49:17.901Z,1016.6
2022-12-04T01:50:17.905Z,1016.5
2022-12-04T01:51:17.923Z,1016.5
2022-12-04T01:52:17.920Z,1016.5
2022-12-04T01:53:17.932Z,1016.5
2022-12-04T01:54:17.935Z,1016.5
2022-12-04T01:55:17.943Z,1016.5
2022-12-04T01:56:17.959Z,1016.5
2022-12-04T01:57:17.959Z,1016.5
2022-12-04T01:58:17.972Z,1016.5
2022-12-04T01:59:17.989Z,1016.4
2022-12-04T02:00:17.990Z,1016.5
2022-12-04T02:01:18.145Z,1016.5
2022-12-04T02:02:18.263Z,1016.5
2022-12-04T02:03:18.013Z,1016.5
2022-12-04T02:04:18.024Z,1016.5
2022-12-04T02:05:18.036Z,1016.5
2022-12-04T02:06:18.047Z,1016.5
2022-12-04T02:07:18.048Z,1016.4
2022-12-04T02:08:18.316Z,1016.4
2022-12-04T02:09:26.352Z,1016.5
2022-12-04T02:10:18.069Z,1016.5
2022-12-04T02:11:18.086Z,1016.5
2022-12-04T02:12:18.080Z,1016.5
2022-12-04T02:13:18.094Z,1016.4
2022-12-04T02:14:18.100Z,1016.5
2022-12-04T02:15:18.109Z,1016.5
2022-12-04T02:16:18.222Z,1016.5
2022-12-04T02:17:18.124Z,1016.4
2022-12-04T02:18:18.134Z,1016.4
2022-12-04T02:19:18.140Z,1016.4
2022-12-04T02:20:18.148Z,1016.4
2022-12-04T02:21:18.154Z,1016.4
2022-12-04T02:22:18.166Z,1016.4
2022-12-04T02:23:18.175Z,1016.4
2022-12-04T02:24:18.181Z,1016.4
2022-12-04T02:25:18.185Z,1016.4
2022-12-04T02:26:18.195Z,1016.4
2022-12-04T02:27:18.200Z,1016.3
2022-12-04T02:28:18.207Z,1016.4
2022-12-04T02:29:18.207Z,1016.4
2022-12-04T02:30:18.221Z,1016.3
2022-12-04T02:31:18.393Z,1016.3
2022-12-04T02:32:18.237Z,1016.3
2022-12-04T02:33:18.246Z,1016.3
2022-12-04T02:34:18.251Z,1016.3
2022-12-04T02:35:18.263Z,1016.3
2022-12-04T02:36:18.272Z,1016.2
2022-12-04T02:37:18.283Z,1016.3
2022-12-04T02:38:18.291Z,1016.3
2022-12-04T02:39:18.308Z,1016.2
2022-12-04T02:40:18.320Z,1016.3
2022-12-04T02:41:18.313Z,1016.2
2022-12-04T02:42:18.319Z,1016.3
2022-12-04T02:43:18.332Z,1016.2
2022-12-04T02:44:18.338Z,1016.2
2022-12-04T02:45:18.346Z,1016.2
2022-12-04T02:46:18.583Z,1016.2
2022-12-04T02:47:18.355Z,1016.2
2022-12-04T02:48:18.365Z,1016.2
2022-12-04T02:49:18.417Z,1016.2
2022-12-04T02:50:18.388Z,1016.1
2022-12-04T02:51:18.391Z,1016.2
2022-12-04T02:52:18.420Z,1016.2
2022-12-04T02:53:18.415Z,1016.2
2022-12-04T02:54:18.436Z,1016.2
2022-12-04T02:55:18.431Z,1016.2
2022-12-04T02:56:18.459Z,1016.2
2022-12-04T02:57:18.459Z,1016.2
2022-12-04T02:58:18.460Z,1016.2
2022-12-04T02:59:18.465Z,1016.2
2022-12-04T03:00:18.556Z,1016.2
2022-12-04T03:01:18.616Z,1016.2
2022-12-04T03:02:18.691Z,1016.2
2022-12-04T03:03:18.519Z,1016.3
2022-12-04T03:04:18.513Z,1016.2
2022-12-04T03:05:18.575Z,1016.2
2022-12-04T03:06:18.535Z,1016.2
2022-12-04T03:07:18.530Z,1016.2
2022-12-04T03:08:18.739Z,1016.2
2022-12-04T03:09:18.545Z,1016.2
2022-12-04T03:10:18.553Z,1016.2
2022-12-04T03:11:18.555Z,1016.3
2022-12-04T03:12:18.566Z,1016.3
2022-12-04T03:13:18.570Z,1016.2
2022-12-04T03:14:18.590Z,1016.3
2022-12-04T03:15:18.581Z,1016.3
2022-12-04T03:16:18.762Z,1016.3
2022-12-04T03:17:18.603Z,1016.3
2022-12-04T03:18:18.608Z,1016.3
2022-12-04T03:19:18.617Z,1016.3
2022-12-04T03:20:18.628Z,1016.3
2022-12-04T03:21:18.631Z,1016.3
2022-12-04T03:22:18.643Z,1016.2
2022-12-04T03:23:18.647Z,1016.2
2022-12-04T03:24:18.675Z,1016.3
2022-12-04T03:25:18.692Z,1016.3
2022-12-04T03:26:18.681Z,1016.2
2022-12-04T03:27:18.686Z,1016.3
2022-12-04T03:28:18.715Z,1016.1
2022-12-04T03:29:18.712Z,1016.3
2022-12-04T03:30:18.722Z,1016.3
2022-12-04T03:31:18.891Z,1016.1
2022-12-04T03:32:18.738Z,1016.2
2022-12-04T03:33:18.732Z,1016.2
2022-12-04T03:34:18.739Z,1016.2
2022-12-04T03:35:18.740Z,1016.3
2022-12-04T03:36:18.754Z,1016.2
2022-12-04T03:37:18.757Z,1016.3
2022-12-04T03:38:18.775Z,1016.2
2022-12-04T03:39:18.776Z,1016.4
2022-12-04T03:40:18.775Z,1016.3
2022-12-04T03:41:18.788Z,1016.3
2022-12-04T03:42:18.789Z,1016.3
2022-12-04T03:43:18.800Z,1016.3
2022-12-04T03:44:18.809Z,1016.4
2022-12-04T03:45:18.819Z,1016.3
2022-12-04T03:46:18.995Z,1016.2
2022-12-04T03:47:18.834Z,1016.2
2022-12-04T03:48:23.600Z,1016.2
2022-12-04T03:49:18.849Z,1016.3
2022-12-04T03:50:18.854Z,1016.2
2022-12-04T03:51:18.864Z,1016.2
2022-12-04T03:52:18.869Z,1016.1
2022-12-04T03:53:18.881Z,1016.3
2022-12-04T03:54:18.889Z,1016.2
2022-12-04T03:55:18.895Z,1016.2
2022-12-04T03:56:18.904Z,1016.2
2022-12-04T03:57:18.921Z,1016.2
2022-12-04T03:58:18.924Z,1016.2
2022-12-04T03:59:18.933Z,1016.1
2022-12-04T04:00:18.940Z,1016.1
2022-12-04T04:01:19.045Z,1016.2
2022-12-04T04:02:19.050Z,1016.2
2022-12-04T04:03:18.975Z,1016.2
2022-12-04T04:04:18.980Z,1016.2
2022-12-04T04:05:18.981Z,1016.2
2022-12-04T04:06:18.994Z,1016.2
2022-12-04T04:07:19.003Z,1016.2
2022-12-04T04:08:19.122Z,1016.2
2022-12-04T04:09:19.016Z,1016.2
2022-12-04T04:10:19.026Z,1016.1
2022-12-04T04:11:19.029Z,1016.2
2022-12-04T04:12:19.037Z,1016.1
2022-12-04T04:13:19.044Z,1016.2
2022-12-04T04:14:19.053Z,1016.2
2022-12-04T04:15:19.066Z,1016.2
2022-12-04T04:16:19.217Z,1016.1
2022-12-04T04:17:19.091Z,1016.2
2022-12-04T04:18:19.093Z,1016.1
2022-12-04T04:19:19.101Z,1016.1
2022-12-04T04:20:19.110Z,1016.2
2022-12-04T04:21:19.112Z,1016.1
2022-12-04T04:22:19.118Z,1016.2
2022-12-04T04:23:19.133Z,1016.2
2022-12-04T04:24:19.141Z,1016.2
2022-12-04T04:25:19.150Z,1016.2
2022-12-04T04:26:19.155Z,1016.2
2022-12-04T04:27:19.162Z,1016.2
2022-12-04T04:28:19.173Z,1016.2
2022-12-04T04:29:19.176Z,1016.2
2022-12-04T04:30:19.195Z,1016.2
2022-12-04T04:31:19.370Z,1016.2
2022-12-04T04:32:19.204Z,1016.2
2022-12-04T04:33:19.207Z,1016.1
2022-12-04T04:34:19.212Z,1016.1
2022-12-04T04:35:19.227Z,1016.1
2022-12-04T04:36:19.225Z,1016.1
2022-12-04T04:37:19.238Z,1016.1
2022-12-04T04:38:19.248Z,1016.1
2022-12-04T04:39:19.252Z,1016.0
2022-12-04T04:40:19.265Z,1016.1
2022-12-04T04:41:19.274Z,1016.1
2022-12-04T04:42:19.276Z,1016.0
2022-12-04T04:43:19.285Z,1016.0
2022-12-04T04:44:19.307Z,1016.0
2022-12-04T04:45:19.310Z,1016.0
2022-12-04T04:46:19.391Z,1016.1
2022-12-04T04:47:19.319Z,1016.1
2022-12-04T04:48:19.329Z,1016.1
2022-12-04T04:49:19.336Z,1016.1
2022-12-04T04:50:19.341Z,1016.1
2022-12-04T04:51:19.362Z,1016.2
2022-12-04T04:52:19.362Z,1016.1
2022-12-04T04:53:19.371Z,1016.1
2022-12-04T04:54:19.380Z,1016.2
2022-12-04T04:55:19.414Z,1016.2
2022-12-04T04:56:19.394Z,1016.2
2022-12-04T04:57:19.395Z,1016.1
2022-12-04T04:58:19.416Z,1016.1
2022-12-04T04:59:19.424Z,1016.1
2022-12-04T05:00:19.432Z,1016.1
2022-12-04T05:01:19.546Z,1016.1
2022-12-04T05:02:19.452Z,1016.1
2022-12-04T05:03:19.607Z,1016.2
2022-12-04T05:04:19.462Z,1016.2
2022-12-04T05:05:19.468Z,1016.2
2022-12-04T05:06:19.480Z,1016.2
2022-12-04T05:07:19.503Z,1016.2
2022-12-04T05:08:19.682Z,1016.2
2022-12-04T05:09:19.510Z,1016.2
2022-12-04T05:10:19.527Z,1016.2
2022-12-04T05:11:19.526Z,1016.2
2022-12-04T05:12:19.540Z,1016.2
2022-12-04T05:13:19.550Z,1016.2
2022-12-04T05:14:19.563Z,1016.2
2022-12-04T05:15:19.575Z,1016.3
2022-12-04T05:16:19.711Z,1016.3
2022-12-04T05:17:19.587Z,1016.3
2022-12-04T05:18:19.599Z,1016.3
2022-12-04T05:19:19.605Z,1016.2
2022-12-04T05:20:19.611Z,1016.3
2022-12-04T05:21:19.625Z,1016.3
2022-12-04T05:22:19.631Z,1016.3
2022-12-04T05:23:19.646Z,1016.3
2022-12-04T05:24:19.652Z,1016.3
2022-12-04T05:25:19.662Z,1016.3
2022-12-04T05:26:19.670Z,1016.3
2022-12-04T05:27:19.678Z,1016.4
2022-12-04T05:28:19.686Z,1016.3
2022-12-04T05:29:19.705Z,1016.3
2022-12-04T05:30:19.710Z,1016.4
2022-12-04T05:31:19.891Z,1016.3
2022-12-04T05:32:19.735Z,1016.3
2022-12-04T05:33:19.742Z,1016.3
2022-12-04T05:34:19.757Z,1016.3
2022-12-04T05:35:19.779Z,1016.3
2022-12-04T05:36:19.764Z,1016.4
2022-12-04T05:37:19.777Z,1016.3
2022-12-04T05:38:19.785Z,1016.3
2022-12-04T05:39:19.793Z,1016.3
2022-12-04T05:40:19.814Z,1016.3
2022-12-04T05:41:19.815Z,1016.2
2022-12-04T05:42:19.831Z,1016.3
2022-12-04T05:43:19.858Z,1016.3
2022-12-04T05:44:19.858Z,1016.4
2022-12-04T05:45:19.902Z,1016.2
2022-12-04T05:46:19.962Z,1016.4
2022-12-04T05:47:19.886Z,1016.3
2022-12-04T05:48:19.893Z,1016.3
2022-12-04T05:49:19.899Z,1016.3
2022-12-04T05:50:19.929Z,1016.2
2022-12-04T05:51:19.918Z,1016.3
2022-12-04T05:52:19.928Z,1016.3
2022-12-04T05:53:19.936Z,1016.3
2022-12-04T05:54:19.945Z,1016.3
2022-12-04T05:55:19.962Z,1016.3
2022-12-04T05:56:19.958Z,1016.2
2022-12-04T05:57:19.979Z,1016.2
2022-12-04T05:58:19.986Z,1016.3
2022-12-04T05:59:19.990Z,1016.2
2022-12-04T06:00:19.998Z,1016.2
2022-12-04T06:01:20.020Z,1016.2
2022-12-04T06:02:20.193Z,1016.2
2022-12-04T06:03:20.235Z,1016.3
2022-12-04T06:04:20.039Z,1016.2
2022-12-04T06:05:20.051Z,1016.2
2022-12-04T06:06:22.781Z,1016.3
2022-12-04T06:07:20.070Z,1016.3
2022-12-04T06:08:20.236Z,1016.2
2022-12-04T06:09:20.084Z,1016.2
2022-12-04T06:10:20.101Z,1016.2
2022-12-04T06:11:20.099Z,1016.2
2022-12-04T06:12:20.106Z,1016.3
2022-12-04T06:13:20.111Z,1016.2
2022-12-04T06:14:20.137Z,1016.2
2022-12-04T06:15:20.134Z,1016.3
2022-12-04T06:16:20.304Z,1016.3
2022-12-04T06:17:20.147Z,1016.3
2022-12-04T06:18:20.163Z,1016.2
2022-12-04T06:19:20.161Z,1016.3
2022-12-04T06:20:20.291Z,1016.2
2022-12-04T06:21:20.173Z,1016.2
2022-12-04T06:22:20.172Z,1016.3
2022-12-04T06:23:20.212Z,1016.2
2022-12-04T06:24:20.183Z,1016.3
2022-12-04T06:25:20.195Z,1016.3
2022-12-04T06:26:20.230Z,1016.3
2022-12-04T06:27:29.035Z,1016.3
2022-12-04T06:28:20.224Z,1016.4
2022-12-04T06:29:20.226Z,1016.4
2022-12-04T06:30:20.245Z,1016.3
2022-12-04T06:31:20.420Z,1016.4
2022-12-04T06:32:22.466Z,1016.3
2022-12-04T06:33:20.257Z,1016.4
2022-12-04T06:34:20.262Z,1016.4
2022-12-04T06:35:20.281Z,1016.4
2022-12-04T06:36:20.285Z,1016.3
2022-12-04T06:37:20.287Z,1016.4
2022-12-04T06:38:20.290Z,1016.3
2022-12-04T06:39:20.312Z,1016.4
2022-12-04T06:40:20.311Z,1016.3
2022-12-04T06:41:20.322Z,1016.5
2022-12-04T06:42:20.328Z,1016.3
2022-12-04T06:43:20.331Z,1016.4
2022-12-04T06:44:20.338Z,1016.4
2022-12-04T06:45:20.362Z,1016.3
2022-12-04T06:46:20.520Z,1016.4
2022-12-04T06:47:20.369Z,1016.3
2022-12-04T06:48:20.373Z,1016.4
2022-12-04T06:49:20.379Z,1016.3
2022-12-04T06:50:20.386Z,1016.4
2022-12-04T06:51:20.397Z,1016.3
2022-12-04T06:52:20.408Z,1016.3
2022-12-04T06:53:20.406Z,1016.4
2022-12-04T06:54:20.423Z,1016.4
2022-12-04T06:55:20.428Z,1016.3
2022-12-04T06:56:20.432Z,1016.3
2022-12-04T06:57:20.451Z,1016.4
2022-12-04T06:58:20.451Z,1016.4
2022-12-04T06:59:20.459Z,1016.5
2022-12-04T07:00:20.474Z,1016.4
2022-12-04T07:01:20.706Z,1016.4
2022-12-04T07:02:20.641Z,1016.5
2022-12-04T07:03:20.503Z,1016.5
2022-12-04T07:04:20.508Z,1016.5
2022-12-04T07:05:20.512Z,1016.5
2022-12-04T07:06:20.522Z,1016.5
2022-12-04T07:07:20.529Z,1016.5
2022-12-04T07:08:20.762Z,1016.6
2022-12-04T07:09:20.554Z,1016.6
2022-12-04T07:10:20.557Z,1016.5
2022-12-04T07:11:20.571Z,1016.5
2022-12-04T07:12:20.580Z,1016.5
2022-12-04T07:13:20.592Z,1016.5
2022-12-04T07:14:20.691Z,1016.5
2022-12-04T07:15:20.603Z,1016.5
2022-12-04T07:16:20.804Z,1016.4
2022-12-04T07:17:20.625Z,1016.5
2022-12-04T07:18:20.638Z,1016.5
2022-12-04T07:19:20.712Z,1016.5
2022-12-04T07:20:20.657Z,1016.5
2022-12-04T07:21:20.667Z,1016.5
2022-12-04T07:22:20.676Z,1016.4
2022-12-04T07:23:20.682Z,1016.4
2022-12-04T07:24:20.700Z,1016.4
2022-12-04T07:25:20.705Z,1016.4
2022-12-04T07:26:20.719Z,1016.4
2022-12-04T07:27:20.729Z,1016.4
2022-12-04T07:28:20.736Z,1016.5
2022-12-04T07:29:20.740Z,1016.4
2022-12-04T07:30:20.756Z,1016.5
2022-12-04T07:31:20.916Z,1016.5
2022-12-04T07:32:20.892Z,1016.5
2022-12-04T07:33:20.785Z,1016.5
2022-12-04T07:34:20.791Z,1016.5
2022-12-04T07:35:20.812Z,1016.5
2022-12-04T07:36:20.833Z,1016.4
2022-12-04T07:37:20.826Z,1016.4
2022-12-04T07:38:20.865Z,1016.4
2022-12-04T07:39:20.857Z,1016.5
2022-12-04T07:40:20.874Z,1016.4
2022-12-04T07:41:20.873Z,1016.4
2022-12-04T07:42:24.583Z,1016.4
2022-12-04T07:43:20.879Z,1016.4
2022-12-04T07:44:20.892Z,1016.4
2022-12-04T07:45:20.898Z,1016.5
2022-12-04T07:46:21.093Z,1016.5
2022-12-04T07:47:20.918Z,1016.5
2022-12-04T07:48:20.920Z,1016.4
2022-12-04T07:49:20.927Z,1016.5
2022-12-04T07:50:20.937Z,1016.5
2022-12-04T07:51:20.948Z,1016.5
2022-12-04T07:52:20.952Z,1016.5
2022-12-04T07:53:20.972Z,1016.5
2022-12-04T07:54:20.974Z,1016.5
2022-12-04T07:55:23.621Z,1016.5
2022-12-04T07:56:20.994Z,1016.5
2022-12-04T07:57:20.999Z,1016.5
2022-12-04T07:58:21.010Z,1016.6
2022-12-04T07:59:21.018Z,1016.5
2022-12-04T08:00:21.035Z,1016.6
2022-12-04T08:01:21.227Z,1016.6
2022-12-04T08:02:21.082Z,1016.6
2022-12-04T08:03:21.075Z,1016.6
2022-12-04T08:04:21.264Z,1016.6
2022-12-04T08:05:21.088Z,1016.6
2022-12-04T08:06:21.100Z,1016.7
2022-12-04T08:07:21.109Z,1016.6
2022-12-04T08:08:21.244Z,1016.6
2022-12-04T08:09:21.132Z,1016.5
2022-12-04T08:10:21.144Z,1016.7
2022-12-04T08:11:21.152Z,1016.6
2022-12-04T08:12:21.175Z,1016.6
2022-12-04T08:13:21.183Z,1016.5
2022-12-04T08:14:21.179Z,1016.6
2022-12-04T08:15:21.192Z,1016.7
2022-12-04T08:16:21.234Z,1016.6
2022-12-04T08:17:21.348Z,1016.7
2022-12-04T08:18:21.221Z,1016.6
2022-12-04T08:19:21.241Z,1016.7
2022-12-04T08:20:21.245Z,1016.6
2022-12-04T08:21:21.253Z,1016.6
2022-12-04T08:22:25.590Z,1016.7
2022-12-04T08:23:21.275Z,1016.6
2022-12-04T08:24:21.286Z,1016.5
2022-12-04T08:25:21.306Z,1016.5
2022-12-04T08:26:21.305Z,1016.5
2022-12-04T08:27:21.323Z,1016.5
2022-12-04T08:28:21.328Z,1016.5
2022-12-04T08:29:21.338Z,1016.6
2022-12-04T08:30:21.341Z,1016.6
2022-12-04T08:31:21.675Z,1016.6
2022-12-04T08:32:21.364Z,1016.6
2022-12-04T08:33:21.372Z,1016.5
2022-12-04T08:34:21.382Z,1016.7
2022-12-04T08:35:21.384Z,1016.5
2022-12-04T08:36:21.393Z,1016.5
2022-12-04T08:37:21.399Z,1016.6
2022-12-04T08:38:21.406Z,1016.6
2022-12-04T08:39:21.420Z,1016.6
2022-12-04T08:40:21.421Z,1016.6
2022-12-04T08:41:21.445Z,1016.5
2022-12-04T08:42:21.437Z,1016.5
2022-12-04T08:43:21.453Z,1016.5
2022-12-04T08:44:21.462Z,1016.6
2022-12-04T08:45:21.470Z,1016.6
2022-12-04T08:46:21.611Z,1016.6
2022-12-04T08:47:21.496Z,1016.6
2022-12-04T08:48:21.502Z,1016.5
2022-12-04T08:49:21.509Z,1016.6
2022-12-04T08:50:21.521Z,1016.6
2022-12-04T08:51:21.533Z,1016.6
2022-12-04T08:52:21.539Z,1016.5
2022-12-04T08:53:21.554Z,1016.6
2022-12-04T08:54:21.563Z,1016.5
2022-12-04T08:55:21.581Z,1016.5
2022-12-04T08:56:21.585Z,1016.5
2022-12-04T08:57:21.594Z,1016.6
2022-12-04T08:58:21.600Z,1016.6
2022-12-04T08:59:21.606Z,1016.6
2022-12-04T09:00:21.620Z,1016.5
2022-12-04T09:01:21.855Z,1016.6
2022-12-04T09:02:21.634Z,1016.5
2022-12-04T09:03:30.638Z,1016.6
2022-12-04T09:04:21.836Z,1016.6
2022-12-04T09:05:21.671Z,1016.6
2022-12-04T09:06:21.678Z,1016.7
2022-12-04T09:07:21.702Z,1016.6
2022-12-04T09:08:21.809Z,1016.6
2022-12-04T09:09:21.705Z,1016.5
2022-12-04T09:10:21.721Z,1016.6
2022-12-04T09:11:21.732Z,1016.6
2022-12-04T09:12:21.740Z,1016.6
2022-12-04T09:13:21.750Z,1016.7
2022-12-04T09:14:21.759Z,1016.6
2022-12-04T09:15:21.768Z,1016.6
2022-12-04T09:16:22.103Z,1016.5
2022-12-04T09:17:21.794Z,1016.6
2022-12-04T09:18:21.810Z,1016.5
2022-12-04T09:19:21.818Z,1016.5
2022-12-04T09:20:21.823Z,1016.5
2022-12-04T09:21:21.827Z,1016.5
2022-12-04T09:22:21.837Z,1016.5
2022-12-04T09:23:21.845Z,1016.5
2022-12-04T09:24:21.855Z,1016.5
2022-12-04T09:25:21.870Z,1016.5
2022-12-04T09:26:21.883Z,1016.5
2022-12-04T09:27:21.887Z,1016.5
2022-12-04T09:28:21.893Z,1016.5
2022-12-04T09:29:21.906Z,1016.5
2022-12-04T09:30:21.921Z,1016.5
2022-12-04T09:31:22.089Z,1016.4
2022-12-04T09:32:21.940Z,1016.4
2022-12-04T09:33:21.951Z,1016.5
2022-12-04T09:34:21.954Z,1016.5
2022-12-04T09:35:21.963Z,1016.5
2022-12-04T09:36:21.982Z,1016.5
2022-12-04T09:37:21.982Z,1016.5
2022-12-04T09:38:21.992Z,1016.5
2022-12-04T09:39:22.006Z,1016.5
2022-12-04T09:40:22.017Z,1016.5
2022-12-04T09:41:22.038Z,1016.4
2022-12-04T09:42:22.038Z,1016.5
2022-12-04T09:43:22.045Z,1016.5
2022-12-04T09:44:22.052Z,1016.5
2022-12-04T09:45:22.096Z,1016.5
2022-12-04T09:46:22.231Z,1016.5
2022-12-04T09:47:22.089Z,1016.5
2022-12-04T09:48:22.095Z,1016.4
2022-12-04T09:49:22.119Z,1016.4
2022-12-04T09:50:22.111Z,1016.4
2022-12-04T09:51:22.125Z,1016.4
2022-12-04T09:52:22.327Z,1016.4
2022-12-04T09:53:22.145Z,1016.3
2022-12-04T09:54:22.154Z,1016.3
2022-12-04T09:55:22.168Z,1016.3
2022-12-04T09:56:22.173Z,1016.3
2022-12-04T09:57:22.189Z,1016.4
2022-12-04T09:58:22.211Z,1016.4
2022-12-04T09:59:22.241Z,1016.4
2022-12-04T10:00:22.240Z,1016.4
2022-12-04T10:01:22.256Z,1016.3
2022-12-04T10:02:22.547Z,1016.4
2022-12-04T10:03:22.684Z,1016.3
2022-12-04T10:04:22.484Z,1016.3
2022-12-04T10:05:22.263Z,1016.3
2022-12-04T10:06:22.268Z,1016.3
2022-12-04T10:07:22.274Z,1016.3
2022-12-04T10:08:22.617Z,1016.3
2022-12-04T10:09:22.326Z,1016.3
2022-12-04T10:10:22.437Z,1016.2
2022-12-04T10:11:22.321Z,1016.3
2022-12-04T10:12:22.331Z,1016.3
2022-12-04T10:13:22.347Z,1016.3
2022-12-04T10:14:22.347Z,1016.3
2022-12-04T10:15:22.371Z,1016.2
2022-12-04T10:16:22.679Z,1016.3
2022-12-04T10:17:22.374Z,1016.3
2022-12-04T10:18:22.387Z,1016.3
2022-12-04T10:19:22.390Z,1016.3
2022-12-04T10:20:22.575Z,1016.3
2022-12-04T10:21:22.411Z,1016.3
2022-12-04T10:22:22.422Z,1016.2
2022-12-04T10:23:22.434Z,1016.3
2022-12-04T10:24:22.439Z,1016.3
2022-12-04T10:25:22.450Z,1016.2
2022-12-04T10:26:22.457Z,1016.3
2022-12-04T10:27:22.476Z,1016.3
2022-12-04T10:28:22.485Z,1016.3
2022-12-04T10:29:22.500Z,1016.3
2022-12-04T10:30:22.659Z,1016.3
2022-12-04T10:31:22.705Z,1016.2
2022-12-04T10:32:22.548Z,1016.2
2022-12-04T10:33:22.536Z,1016.2
2022-12-04T10:34:22.551Z,1016.2
2022-12-04T10:35:22.559Z,1016.3
2022-12-04T10:36:22.571Z,1016.2
2022-12-04T10:37:22.579Z,1016.1
2022-12-04T10:38:22.599Z,1016.2
2022-12-04T10:39:22.593Z,1016.2
2022-12-04T10:40:22.611Z,1016.1
2022-12-04T10:41:22.618Z,1016.2
2022-12-04T10:42:22.636Z,1016.2
2022-12-04T10:43:22.653Z,1016.2
2022-12-04T10:44:22.653Z,1016.2
2022-12-04T10:45:22.672Z,1016.2
2022-12-04T10:46:22.838Z,1016.2
2022-12-04T10:47:22.682Z,1016.2
2022-12-04T10:48:22.687Z,1016.2
2022-12-04T10:49:22.704Z,1016.1
2022-12-04T10:50:22.703Z,1016.2
2022-12-04T10:51:22.709Z,1016.2
2022-12-04T10:52:22.720Z,1016.2
2022-12-04T10:53:22.725Z,1016.2
2022-12-04T10:54:22.732Z,1016.2
2022-12-04T10:55:22.736Z,1016.2
2022-12-04T10:56:22.767Z,1016.2
2022-12-04T10:57:22.762Z,1016.1
2022-12-04T10:58:22.768Z,1016.1
2022-12-04T10:59:22.784Z,1016.1
2022-12-04T11:00:22.797Z,1016.2
2022-12-04T11:01:22.946Z,1016.1
2022-12-04T11:02:23.032Z,1016.1
2022-12-04T11:03:22.961Z,1016.1
2022-12-04T11:04:22.865Z,1016.2
2022-12-04T11:05:22.856Z,1016.0
2022-12-04T11:06:22.860Z,1016.0
2022-12-04T11:07:22.898Z,1016.1
2022-12-04T11:08:22.961Z,1016.1
2022-12-04T11:09:22.891Z,1016.1
2022-12-04T11:10:22.947Z,1016.0
2022-12-04T11:11:22.916Z,1016.1
2022-12-04T11:12:22.948Z,1016.0
2022-12-04T11:13:22.941Z,1016.0
2022-12-04T11:14:22.941Z,1015.9
2022-12-04T11:15:22.947Z,1015.9
2022-12-04T11:16:23.055Z,1015.9
2022-12-04T11:17:22.974Z,1015.9
2022-12-04T11:18:22.975Z,1015.9
2022-12-04T11:19:22.975Z,1016.0
2022-12-04T11:20:22.995Z,1015.9
2022-12-04T11:21:22.999Z,1016.0
2022-12-04T11:22:23.012Z,1016.0
2022-12-04T11:23:23.024Z,1016.0
2022-12-04T11:24:23.026Z,1015.9
2022-12-04T11:25:23.038Z,1015.9
2022-12-04T11:26:23.050Z,1015.9
2022-12-04T11:27:23.060Z,1016.0
2022-12-04T11:28:41.478Z,1015.9
2022-12-04T11:29:23.085Z,1015.8
2022-12-04T11:30:23.084Z,1015.9
2022-12-04T11:31:23.250Z,1015.9
2022-12-04T11:32:23.110Z,1015.8
2022-12-04T11:33:23.122Z,1015.8
2022-12-04T11:34:23.127Z,1015.8
2022-12-04T11:35:23.150Z,1015.8
2022-12-04T11:36:23.162Z,1015.8
2022-12-04T11:37:23.166Z,1015.8
2022-12-04T11:38:23.177Z,1015.9
2022-12-04T11:39:23.187Z,1015.9
2022-12-04T11:40:23.192Z,1015.8
2022-12-04T11:41:23.205Z,1015.8
2022-12-04T11:42:23.217Z,1015.8
2022-12-04T11:43:23.231Z,1015.8
2022-12-04T11:44:23.246Z,1015.9
2022-12-04T11:45:23.280Z,1015.8
2022-12-04T11:46:23.441Z,1015.8
2022-12-04T11:47:23.279Z,1015.7
2022-12-04T11:48:23.284Z,1015.8
2022-12-04T11:49:23.291Z,1015.7
2022-12-04T11:50:23.303Z,1015.7
2022-12-04T11:51:23.322Z,1015.8
2022-12-04T11:52:23.324Z,1015.8
2022-12-04T11:53:23.335Z,1015.8
2022-12-04T11:54:23.354Z,1015.8
2022-12-04T11:55:29.573Z,1015.7
2022-12-04T11:56:23.373Z,1015.7
2022-12-04T11:57:23.382Z,1015.8
2022-12-04T11:58:23.398Z,1015.7
2022-12-04T11:59:23.392Z,1015.6
2022-12-04T12:00:23.403Z,1015.7
2022-12-04T12:01:23.416Z,1015.6
2022-12-04T12:02:23.854Z,1015.7
2022-12-04T12:03:23.984Z,1015.7
2022-12-04T12:04:23.451Z,1015.7
2022-12-04T12:05:23.461Z,1015.7
2022-12-04T12:06:23.475Z,1015.6
2022-12-04T12:07:23.488Z,1015.7
2022-12-04T12:08:23.502Z,1015.6
2022-12-04T12:09:23.507Z,1015.6
2022-12-04T12:10:23.526Z,1015.6
2022-12-04T12:11:23.535Z,1015.6
2022-12-04T12:12:23.548Z,1015.6
2022-12-04T12:13:23.570Z,1015.6
2022-12-04T12:14:23.570Z,1015.6
2022-12-04T12:15:23.581Z,1015.6
2022-12-04T12:16:23.741Z,1015.6
2022-12-04T12:17:23.621Z,1015.7
2022-12-04T12:18:23.622Z,1015.7
2022-12-04T12:19:23.634Z,1015.6
2022-12-04T12:20:23.649Z,1015.6
2022-12-04T12:21:23.658Z,1015.6
2022-12-04T12:22:23.661Z,1015.6
2022-12-04T12:23:23.673Z,1015.7
2022-12-04T12:24:23.687Z,1015.6
2022-12-04T12:25:23.696Z,1015.7
2022-12-04T12:26:23.699Z,1015.7
2022-12-04T12:27:23.722Z,1015.7
2022-12-04T12:28:23.755Z,1015.7
2022-12-04T12:29:23.732Z,1015.7
2022-12-04T12:30:23.743Z,1015.6
2022-12-04T12:31:23.807Z,1015.7
2022-12-04T12:32:23.767Z,1015.7
2022-12-04T12:33:23.772Z,1015.6
2022-12-04T12:34:23.789Z,1015.6
2022-12-04T12:35:23.801Z,1015.6
2022-12-04T12:36:23.820Z,1015.6
2022-12-04T12:37:23.824Z,1015.6
2022-12-04T12:38:23.841Z,1015.7
2022-12-04T12:39:23.864Z,1015.6
2022-12-04T12:40:23.862Z,1015.7
2022-12-04T12:41:23.873Z,1015.6
2022-12-04T12:42:23.880Z,1015.6
2022-12-04T12:43:24.067Z,1015.6
2022-12-04T12:44:23.890Z,1015.5
2022-12-04T12:45:23.914Z,1015.6